Fritz — WDF3166 — position and weather

sailwx.info

Track history (hours):
 
Tides and Currents Weather Stations Pressure Air Temp Water Temp Dewpoint Dewpoint Depression Visibility Wind Speed Wind Dir Waves Ship Positions

Fritz

Owner: Enterprise Marine Services, LLC, San Antonio, TX. More information available from US FCC via Universal Licensing System and Coast Guard Vessel Documentation Center.

Last reported at 2017-Oct-19 13:58 UTC. Time now 2017-Oct-20 06:52 UTC.
Position N 30°02' W 094°02'.

Length 31 m; draft 3 m.

Type: Towing. MMSI: 367428150.

Date/timePositionNaut miles runAvg speedWind from/ knotsBaromVisibWave heightAir tempDewpointWater temp
2017-Oct-19 13:58N 30°02' W 094°02'0 0.0
2017-Oct-19 13:31N 30°02' W 094°02'  
2017-Oct-17 02:30N 29°29' W 094°52'4 9.0
2017-Oct-17 02:00N 29°33' W 094°55'4 8.9
2017-Oct-17 01:30N 29°37' W 094°57'5 8.8
2017-Oct-17 00:59N 29°41' W 094°59'6 7.6
2017-Oct-17 00:15N 29°45' W 095°04'1 5.8
2017-Oct-17 00:00N 29°46' W 095°05'3 5.0
2017-Oct-16 23:25N 29°44' W 095°08'0 0.0
2017-Oct-15 07:20N 29°44' W 095°09'3 6.5
2017-Oct-15 06:51N 29°46' W 095°05'2 0.0
2017-Oct-13 08:26N 29°47' W 095°05'3 5.1
2017-Oct-13 07:52N 29°45' W 095°04'0 0.1
2017-Oct-13 06:02N 29°44' W 095°04'2 0.1
2017-Oct-11 17:27N 29°46' W 095°05'3 6.3
2017-Oct-11 17:00N 29°44' W 095°03'  
Track history (hours):
 
Tides and Currents Weather Stations Pressure Air Temp Water Temp Dewpoint Dewpoint Depression Visibility Wind Speed Wind Dir Waves Ship Positions

Fritz

Owner: Enterprise Marine Services, LLC, San Antonio, TX. More information available from US FCC via Universal Licensing System and Coast Guard Vessel Documentation Center.

Last reported at 2017-Oct-19 13:58 UTC. Time now 2017-Oct-20 06:52 UTC.
Position N 30°02' W 094°02'.

Length 31 m; draft 3 m.

Type: Towing. MMSI: 367428150.

Date/timePositionNaut miles runAvg speedWind from/ knotsBaromVisibWave heightAir tempDewpointWater temp
2017-Oct-19 13:58N 30°02' W 094°02'0 0.0
2017-Oct-19 13:31N 30°02' W 094°02'  
2017-Oct-17 02:30N 29°29' W 094°52'4 9.0
2017-Oct-17 02:00N 29°33' W 094°55'4 8.9
2017-Oct-17 01:30N 29°37' W 094°57'5 8.8
2017-Oct-17 00:59N 29°41' W 094°59'6 7.6
2017-Oct-17 00:15N 29°45' W 095°04'1 5.8
2017-Oct-17 00:00N 29°46' W 095°05'3 5.0
2017-Oct-16 23:25N 29°44' W 095°08'0 0.0
2017-Oct-15 07:20N 29°44' W 095°09'3 6.5
2017-Oct-15 06:51N 29°46' W 095°05'2 0.0
2017-Oct-13 08:26N 29°47' W 095°05'3 5.1
2017-Oct-13 07:52N 29°45' W 095°04'0 0.1
2017-Oct-13 06:02N 29°44' W 095°04'2 0.1
2017-Oct-11 17:27N 29°46' W 095°05'3 6.3
2017-Oct-11 17:00N 29°44' W 095°03'  

Dump ship's entire track history